Time;durP1;ratioP1;P1;durP2;ratioP2;P2;SDS_P1;SDS_P2;PMS_P1;PMS_P2;Temp;Humidity;BMP_temperature;BMP_pressure;BME280_temperature;BME280_humidity;BME280_pressure;Samples;Min_cycle;Max_cycle;Signal;HPM_P1;HPM_P2
2021/04/18 00:00:56;;;;;;;17.13;13.48;;;;;;;;;;5075633;28;20371;-81
2021/04/18 00:03:22;;;;;;;19.85;13.95;;;;;;;;;;5076716;28;20498;-78
2021/04/18 00:05:47;;;;;;;19.90;13.93;;;;;;;;;;5080332;28;20017;-80
2021/04/18 00:08:13;;;;;;;18.88;14.70;;;;;;;;;;5081543;28;20483;-81
2021/04/18 00:10:39;;;;;;;21.05;14.20;;;;;;;;;;5086271;28;20134;-80
2021/04/18 00:13:05;;;;;;;21.58;14.20;;;;;;;;;;5074882;28;20032;-80
2021/04/18 00:15:30;;;;;;;22.77;15.30;;;;;;;;;;5087092;28;20014;-79
2021/04/18 00:17:56;;;;;;;20.38;14.25;;;;;;;;;;5080678;28;20062;-79
2021/04/18 00:20:21;;;;;;;21.40;14.68;;;;;;;;;;5082018;28;20371;-80
2021/04/18 00:22:47;;;;;;;18.00;14.05;;;;;;;;;;5106462;28;20020;-80
2021/04/18 00:25:13;;;;;;;21.23;15.88;;;;;;;;;;5096940;28;20024;-80
2021/04/18 00:27:38;;;;;;;20.90;14.68;;;;;;;;;;5098061;28;20024;-79
2021/04/18 00:30:05;;;;;;;19.75;13.73;;;;;;;;;;5091950;28;20024;-79
2021/04/18 00:32:30;;;;;;;19.50;13.38;;;;;;;;;;5094319;28;20048;-79
2021/04/18 00:34:56;;;;;;;23.17;13.95;;;;;;;;;;5079431;28;20027;-79
2021/04/18 00:37:21;;;;;;;22.00;14.57;;;;;;;;;;5077362;28;20097;-80
2021/04/18 00:39:46;;;;;;;20.45;14.77;;;;;;;;;;5086846;28;20047;-79
2021/04/18 00:42:12;;;;;;;24.00;15.70;;;;;;;;;;5076421;28;20438;-79
2021/04/18 00:44:37;;;;;;;23.38;15.52;;;;;;;;;;5079919;28;20029;-78
2021/04/18 00:47:02;;;;;;;23.05;15.52;;;;;;;;;;5081328;28;20111;-79
2021/04/18 00:49:28;;;;;;;24.85;16.38;;;;;;;;;;5057806;28;20028;-78
2021/04/18 00:51:53;;;;;;;22.30;15.45;;;;;;;;;;5087789;28;20070;-79
2021/04/18 00:54:18;;;;;;;21.95;14.65;;;;;;;;;;5092163;28;20028;-78
2021/04/18 00:56:43;;;;;;;25.73;17.00;;;;;;;;;;5084136;28;20135;-81
2021/04/18 00:59:09;;;;;;;23.20;14.98;;;;;;;;;;5083098;28;20016;-79
2021/04/18 01:01:34;;;;;;;23.30;15.60;;;;;;;;;;5082384;28;20486;-80
2021/04/18 01:03:59;;;;;;;24.77;16.75;;;;;;;;;;5085247;28;20032;-81
2021/04/18 01:06:24;;;;;;;24.55;15.98;;;;;;;;;;5081406;28;20483;-78
2021/04/18 01:08:49;;;;;;;25.92;16.65;;;;;;;;;;5082458;28;20028;-79
2021/04/18 01:11:15;;;;;;;24.67;16.08;;;;;;;;;;5080076;28;20497;-80
2021/04/18 01:13:40;;;;;;;21.67;15.15;;;;;;;;;;5065430;28;20035;-81
2021/04/18 01:16:05;;;;;;;24.40;16.05;;;;;;;;;;5080799;28;20026;-80
2021/04/18 01:18:30;;;;;;;22.95;15.93;;;;;;;;;;5081574;28;20485;-80
2021/04/18 01:21:03;;;;;;;22.02;15.52;;;;;;;;;;5071000;28;20127;-80
2021/04/18 01:23:28;;;;;;;24.15;16.33;;;;;;;;;;5073513;28;20102;-80
2021/04/18 01:25:53;;;;;;;23.77;16.55;;;;;;;;;;5080880;28;20020;-79
2021/04/18 01:28:18;;;;;;;24.58;17.15;;;;;;;;;;5078885;28;20030;-79
2021/04/18 01:30:44;;;;;;;22.75;16.00;;;;;;;;;;5072873;28;20038;-80
2021/04/18 01:33:09;;;;;;;25.02;17.50;;;;;;;;;;5083600;28;20044;-81
2021/04/18 01:35:35;;;;;;;26.08;17.00;;;;;;;;;;5076475;28;20468;-79
2021/04/18 01:38:00;;;;;;;24.77;16.75;;;;;;;;;;5081462;28;20098;-79
2021/04/18 01:40:25;;;;;;;25.75;17.35;;;;;;;;;;5080886;28;20052;-79
2021/04/18 01:42:51;;;;;;;25.88;16.63;;;;;;;;;;5078035;28;20028;-80
2021/04/18 01:45:18;;;;;;;27.15;18.23;;;;;;;;;;5081379;28;20466;-80
2021/04/18 01:47:44;;;;;;;25.85;16.40;;;;;;;;;;5081599;28;20040;-79
2021/04/18 01:50:11;;;;;;;26.25;17.98;;;;;;;;;;5075037;28;20035;-79
2021/04/18 01:52:36;;;;;;;26.52;17.73;;;;;;;;;;5084636;28;20044;-78
2021/04/18 01:55:02;;;;;;;25.63;16.85;;;;;;;;;;5083767;28;20024;-81
2021/04/18 01:57:28;;;;;;;27.67;18.55;;;;;;;;;;5089577;28;20047;-80
2021/04/18 01:59:54;;;;;;;27.65;18.80;;;;;;;;;;5084989;28;20005;-79
2021/04/18 02:02:19;;;;;;;26.70;17.77;;;;;;;;;;5084314;28;20036;-79
2021/04/18 02:04:47;;;;;;;27.55;17.90;;;;;;;;;;5077225;28;20137;-78
2021/04/18 02:07:12;;;;;;;27.35;18.48;;;;;;;;;;5082385;28;20080;-80
2021/04/18 02:09:37;;;;;;;28.40;19.13;;;;;;;;;;5082920;28;20104;-80
2021/04/18 02:12:05;;;;;;;28.10;18.45;;;;;;;;;;5077344;28;20028;-78
2021/04/18 02:14:31;;;;;;;26.88;18.08;;;;;;;;;;5082029;28;20036;-80
2021/04/18 02:16:56;;;;;;;26.67;18.17;;;;;;;;;;5072726;28;20036;-80
2021/04/18 02:19:21;;;;;;;28.60;18.23;;;;;;;;;;5062376;28;20351;-78
2021/04/18 02:21:47;;;;;;;26.77;18.13;;;;;;;;;;5082087;28;20031;-79
2021/04/18 02:24:12;;;;;;;26.05;17.92;;;;;;;;;;5081963;28;20067;-80
2021/04/18 02:26:38;;;;;;;29.73;17.42;;;;;;;;;;5078049;28;20726;-79
2021/04/18 02:29:03;;;;;;;30.85;19.60;;;;;;;;;;5080294;28;20034;-80
2021/04/18 02:31:28;;;;;;;28.65;19.10;;;;;;;;;;5080437;28;20032;-80
2021/04/18 02:33:54;;;;;;;27.42;18.85;;;;;;;;;;5083062;28;20047;-79
2021/04/18 02:36:19;;;;;;;27.60;17.77;;;;;;;;;;5079420;28;20106;-79
2021/04/18 02:38:44;;;;;;;28.67;19.33;;;;;;;;;;5071816;28;20214;-80
2021/04/18 02:41:09;;;;;;;31.30;19.95;;;;;;;;;;5071217;28;20523;-80
2021/04/18 02:43:35;;;;;;;27.52;18.05;;;;;;;;;;5076151;28;20025;-80
2021/04/18 02:46:00;;;;;;;29.38;19.73;;;;;;;;;;5073335;28;20485;-78
2021/04/18 02:48:25;;;;;;;31.75;19.10;;;;;;;;;;5086297;28;20510;-79
2021/04/18 02:50:50;;;;;;;46.97;19.80;;;;;;;;;;5088976;28;20027;-78
2021/04/18 02:53:15;;;;;;;30.67;19.33;;;;;;;;;;5080272;28;20075;-79
2021/04/18 02:55:41;;;;;;;31.60;19.08;;;;;;;;;;5082392;28;20093;-78
2021/04/18 02:58:06;;;;;;;31.05;20.13;;;;;;;;;;5081576;28;20491;-79
2021/04/18 03:00:31;;;;;;;29.55;18.58;;;;;;;;;;5084346;28;20024;-79
2021/04/18 03:02:57;;;;;;;30.02;19.85;;;;;;;;;;5082830;28;20065;-80
2021/04/18 03:05:22;;;;;;;32.67;20.13;;;;;;;;;;5084123;28;20031;-79
2021/04/18 03:07:47;;;;;;;30.05;19.95;;;;;;;;;;5080147;28;20035;-80
2021/04/18 03:10:12;;;;;;;32.50;21.30;;;;;;;;;;5075965;28;20464;-79
2021/04/18 03:12:38;;;;;;;30.70;20.85;;;;;;;;;;5075123;28;20028;-79
2021/04/18 03:15:04;;;;;;;32.67;19.15;;;;;;;;;;5080680;28;20127;-79
2021/04/18 03:17:29;;;;;;;30.40;20.48;;;;;;;;;;5086277;28;20028;-80
2021/04/18 03:19:54;;;;;;;33.78;20.25;;;;;;;;;;5081255;28;20085;-79
2021/04/18 03:22:19;;;;;;;28.20;19.42;;;;;;;;;;5062815;28;20031;-80
2021/04/18 03:24:45;;;;;;;30.23;19.58;;;;;;;;;;5084714;28;20012;-81
2021/04/18 03:27:10;;;;;;;30.60;20.15;;;;;;;;;;5088480;28;20032;-79
2021/04/18 03:29:35;;;;;;;29.85;19.58;;;;;;;;;;5057704;28;20123;-79
2021/04/18 03:32:00;;;;;;;30.73;20.55;;;;;;;;;;5086218;28;20439;-79
2021/04/18 03:34:26;;;;;;;31.40;20.30;;;;;;;;;;5076884;28;20032;-80
2021/04/18 03:36:51;;;;;;;28.42;18.70;;;;;;;;;;5076291;28;20423;-78
2021/04/18 03:39:16;;;;;;;31.20;20.33;;;;;;;;;;5087510;28;20043;-79
2021/04/18 03:41:41;;;;;;;33.65;21.33;;;;;;;;;;5079517;28;20536;-79
2021/04/18 03:44:07;;;;;;;32.22;20.42;;;;;;;;;;5076268;28;20025;-81
2021/04/18 03:46:32;;;;;;;29.48;19.98;;;;;;;;;;5082178;28;20020;-80
2021/04/18 03:48:57;;;;;;;32.65;20.90;;;;;;;;;;5081899;28;20016;-80
2021/04/18 03:51:22;;;;;;;30.63;20.88;;;;;;;;;;5059393;28;20024;-80
2021/04/18 03:53:47;;;;;;;29.65;20.25;;;;;;;;;;5080976;28;20038;-80
2021/04/18 03:56:13;;;;;;;31.15;20.60;;;;;;;;;;5081967;28;20029;-80
2021/04/18 03:58:39;;;;;;;30.63;20.48;;;;;;;;;;5081562;28;20460;-80
2021/04/18 04:01:05;;;;;;;30.85;20.67;;;;;;;;;;5083934;28;20464;-79
2021/04/18 04:03:30;;;;;;;29.15;19.85;;;;;;;;;;5087165;28;20020;-81
2021/04/18 04:05:55;;;;;;;31.33;20.73;;;;;;;;;;5087676;28;20093;-80
2021/04/18 04:08:20;;;;;;;31.02;19.95;;;;;;;;;;5087488;28;20119;-80
2021/04/18 04:10:45;;;;;;;29.25;19.85;;;;;;;;;;5094677;28;20016;-81
2021/04/18 04:13:10;;;;;;;29.92;20.85;;;;;;;;;;5089572;28;20085;-80
2021/04/18 04:15:35;;;;;;;31.08;20.25;;;;;;;;;;5086518;28;20439;-79
2021/04/18 04:18:01;;;;;;;31.40;21.08;;;;;;;;;;5083608;28;20055;-80
2021/04/18 04:20:26;;;;;;;29.70;20.60;;;;;;;;;;5086205;28;20026;-80
2021/04/18 04:22:51;;;;;;;36.42;21.58;;;;;;;;;;5092162;28;20028;-79
2021/04/18 04:25:16;;;;;;;33.58;21.30;;;;;;;;;;5079012;28;20031;-79
2021/04/18 04:27:41;;;;;;;30.40;20.42;;;;;;;;;;5096645;28;20224;-79
2021/04/18 04:30:07;;;;;;;33.10;21.92;;;;;;;;;;5069627;28;20489;-79
2021/04/18 04:32:32;;;;;;;35.22;21.33;;;;;;;;;;5094964;28;20130;-79
2021/04/18 04:34:58;;;;;;;32.20;21.00;;;;;;;;;;5084388;28;20035;-78
2021/04/18 04:37:23;;;;;;;31.67;21.23;;;;;;;;;;5089577;28;20139;-78
2021/04/18 04:39:48;;;;;;;33.22;21.67;;;;;;;;;;5085297;28;20056;-79
2021/04/18 04:42:13;;;;;;;34.63;20.83;;;;;;;;;;5082280;28;20032;-79
2021/04/18 04:44:38;;;;;;;34.42;21.23;;;;;;;;;;5065995;28;20036;-79
2021/04/18 04:47:04;;;;;;;35.33;21.33;;;;;;;;;;5070861;28;20028;-80
2021/04/18 04:49:29;;;;;;;34.75;22.00;;;;;;;;;;5085239;28;20432;-79
2021/04/18 04:51:54;;;;;;;33.70;21.85;;;;;;;;;;5084130;28;20026;-79
2021/04/18 04:54:19;;;;;;;34.17;21.45;;;;;;;;;;5087417;28;20219;-80
2021/04/18 04:56:44;;;;;;;34.33;21.98;;;;;;;;;;5067907;28;20027;-79
2021/04/18 04:59:10;;;;;;;31.95;20.98;;;;;;;;;;5078150;28;20032;-79
2021/04/18 05:01:35;;;;;;;33.85;22.40;;;;;;;;;;5081265;28;20561;-78
2021/04/18 05:04:00;;;;;;;34.53;21.35;;;;;;;;;;5082107;28;20123;-78
2021/04/18 05:06:25;;;;;;;30.85;20.77;;;;;;;;;;5075671;28;20024;-78
2021/04/18 05:08:51;;;;;;;33.15;21.05;;;;;;;;;;5048046;28;20035;-78
2021/04/18 05:11:16;;;;;;;33.10;21.80;;;;;;;;;;5081217;28;20435;-78
2021/04/18 05:13:41;;;;;;;31.77;21.58;;;;;;;;;;5087564;28;20040;-79
2021/04/18 05:16:06;;;;;;;32.13;21.02;;;;;;;;;;5074073;28;20008;-78
2021/04/18 05:18:31;;;;;;;33.50;22.15;;;;;;;;;;5085623;28;20447;-79
2021/04/18 05:20:56;;;;;;;33.92;21.40;;;;;;;;;;5085047;28;20012;-80
2021/04/18 05:23:22;;;;;;;33.92;21.45;;;;;;;;;;5083695;28;20107;-80
2021/04/18 05:25:47;;;;;;;35.85;21.60;;;;;;;;;;5086889;28;20028;-80
2021/04/18 05:28:12;;;;;;;34.05;22.00;;;;;;;;;;5086965;28;20069;-81
2021/04/18 05:30:39;;;;;;;33.03;21.48;;;;;;;;;;5081641;28;20013;-79
2021/04/18 05:33:04;;;;;;;32.95;21.02;;;;;;;;;;5081914;28;20083;-79
2021/04/18 05:35:29;;;;;;;32.10;21.88;;;;;;;;;;5066188;28;20459;-79
2021/04/18 05:37:54;;;;;;;31.63;20.90;;;;;;;;;;5084803;28;20051;-80
2021/04/18 05:40:20;;;;;;;31.65;20.85;;;;;;;;;;5083978;28;20025;-78
2021/04/18 05:42:45;;;;;;;33.35;21.52;;;;;;;;;;5082543;28;20050;-80
2021/04/18 05:45:10;;;;;;;30.55;19.98;;;;;;;;;;5079269;28;20846;-79
2021/04/18 05:47:35;;;;;;;35.05;22.15;;;;;;;;;;5077027;28;20024;-80
2021/04/18 05:50:01;;;;;;;33.15;20.98;;;;;;;;;;5088082;28;20019;-79
2021/04/18 05:52:27;;;;;;;34.33;22.52;;;;;;;;;;5079073;28;20447;-78
2021/04/18 05:54:54;;;;;;;33.75;21.63;;;;;;;;;;5063828;28;20036;-79
2021/04/18 05:57:19;;;;;;;32.80;21.35;;;;;;;;;;5078707;28;20042;-79
2021/04/18 05:59:45;;;;;;;31.85;20.55;;;;;;;;;;5077840;28;20020;-78
2021/04/18 06:02:10;;;;;;;34.13;21.92;;;;;;;;;;5083328;28;20032;-79
2021/04/18 06:04:35;;;;;;;32.75;22.15;;;;;;;;;;5083257;28;20438;-79
2021/04/18 06:07:00;;;;;;;36.35;22.15;;;;;;;;;;5073379;28;20357;-78
2021/04/18 06:09:25;;;;;;;36.20;22.08;;;;;;;;;;5082102;28;20443;-79
2021/04/18 06:11:51;;;;;;;31.15;21.10;;;;;;;;;;5079852;28;20024;-78
2021/04/18 06:14:16;;;;;;;32.45;21.20;;;;;;;;;;5083016;28;20107;-80
2021/04/18 06:16:41;;;;;;;32.80;21.00;;;;;;;;;;5076575;28;20048;-79
2021/04/18 06:19:06;;;;;;;31.33;21.05;;;;;;;;;;5078009;28;20492;-78
2021/04/18 06:21:32;;;;;;;33.15;20.95;;;;;;;;;;5084511;28;20035;-79
2021/04/18 06:23:57;;;;;;;37.08;22.23;;;;;;;;;;5084944;28;20077;-81
2021/04/18 06:26:22;;;;;;;33.08;20.75;;;;;;;;;;5079458;28;20112;-79
2021/04/18 06:28:47;;;;;;;35.65;19.73;;;;;;;;;;5079731;28;20114;-79
2021/04/18 06:31:12;;;;;;;32.63;21.10;;;;;;;;;;5075913;28;20035;-80
2021/04/18 06:33:37;;;;;;;32.35;20.50;;;;;;;;;;5076326;28;20078;-79
2021/04/18 06:36:03;;;;;;;34.33;21.25;;;;;;;;;;5086888;28;20502;-81
2021/04/18 06:38:28;;;;;;;34.08;21.52;;;;;;;;;;5088832;28;20024;-82
2021/04/18 06:40:53;;;;;;;34.50;21.67;;;;;;;;;;5081709;28;20108;-81
2021/04/18 06:43:20;;;;;;;30.88;19.75;;;;;;;;;;5082093;28;20028;-79
2021/04/18 06:45:48;;;;;;;32.25;20.60;;;;;;;;;;5082131;28;20031;-80
2021/04/18 06:48:13;;;;;;;33.05;20.90;;;;;;;;;;5078966;28;20028;-80
2021/04/18 06:50:39;;;;;;;32.42;21.15;;;;;;;;;;5082813;28;20458;-80
2021/04/18 06:53:04;;;;;;;34.63;22.08;;;;;;;;;;5086480;28;20031;-80
2021/04/18 06:55:29;;;;;;;31.33;20.55;;;;;;;;;;5087654;28;20012;-80
2021/04/18 06:57:55;;;;;;;34.88;20.77;;;;;;;;;;5077814;28;20016;-80
2021/04/18 07:00:21;;;;;;;32.95;21.38;;;;;;;;;;5066927;28;20104;-80
2021/04/18 07:02:46;;;;;;;32.60;20.92;;;;;;;;;;5080323;28;20032;-81
2021/04/18 07:05:12;;;;;;;33.72;21.00;;;;;;;;;;5082769;28;20070;-81
2021/04/18 07:07:39;;;;;;;32.63;20.65;;;;;;;;;;5062731;28;20031;-80
2021/04/18 07:10:05;;;;;;;30.08;20.35;;;;;;;;;;5077387;28;20031;-84
2021/04/18 07:12:31;;;;;;;30.83;20.58;;;;;;;;;;5059169;28;20028;-84
2021/04/18 07:14:57;;;;;;;32.33;22.63;;;;;;;;;;5091107;28;20032;-84
2021/04/18 07:17:23;;;;;;;32.88;20.17;;;;;;;;;;5066575;28;20486;-82
2021/04/18 07:19:49;;;;;;;31.58;20.20;;;;;;;;;;5082522;28;20028;-83
2021/04/18 07:22:19;;;;;;;30.60;21.27;;;;;;;;;;5058896;28;20382;-86
2021/04/18 07:24:52;;;;;;;29.27;19.15;;;;;;;;;;5057902;28;20475;-86
2021/04/18 07:27:19;;;;;;;31.15;20.60;;;;;;;;;;5091033;28;20063;-89
2021/04/18 07:29:59;;;;;;;30.63;20.08;;;;;;;;;;5091413;28;20032;-88
2021/04/18 07:32:25;;;;;;;31.20;19.95;;;;;;;;;;5091035;28;20125;-89
2021/04/18 07:34:51;;;;;;;30.98;20.23;;;;;;;;;;5087432;28;20027;-89
2021/04/18 07:37:17;;;;;;;32.97;20.90;;;;;;;;;;5073125;28;20016;-89
2021/04/18 07:39:42;;;;;;;28.83;20.25;;;;;;;;;;5095092;28;20068;-89
2021/04/18 07:42:08;;;;;;;30.15;20.55;;;;;;;;;;5093722;28;20408;-91
2021/04/18 07:44:33;;;;;;;32.78;20.27;;;;;;;;;;5083363;28;20027;-87
2021/04/18 07:47:00;;;;;;;32.28;21.17;;;;;;;;;;5092372;28;20028;-87
2021/04/18 07:49:25;;;;;;;29.73;20.58;;;;;;;;;;5082085;28;20028;-89
2021/04/18 07:51:50;;;;;;;29.77;20.42;;;;;;;;;;5082399;28;20016;-89
2021/04/18 07:54:16;;;;;;;32.20;21.35;;;;;;;;;;5081593;28;20043;-87
2021/04/18 07:56:43;;;;;;;29.13;19.25;;;;;;;;;;5104692;28;20000;-88
2021/04/18 07:59:08;;;;;;;29.13;19.60;;;;;;;;;;5111891;28;20019;-89
2021/04/18 08:01:34;;;;;;;29.38;20.50;;;;;;;;;;5084052;28;20035;-85
2021/04/18 08:04:01;;;;;;;30.67;20.45;;;;;;;;;;5102676;28;20102;-90
2021/04/18 08:06:26;;;;;;;30.45;20.60;;;;;;;;;;5079346;28;20031;-89
2021/04/18 08:08:53;;;;;;;29.48;20.58;;;;;;;;;;5077758;28;20024;-86
2021/04/18 08:11:20;;;;;;;31.80;20.52;;;;;;;;;;5091876;28;20024;-89
2021/04/18 08:13:49;;;;;;;32.65;21.85;;;;;;;;;;5092890;28;20067;-88
2021/04/18 08:16:24;;;;;;;32.30;21.48;;;;;;;;;;5098069;28;20053;-87
2021/04/18 08:18:49;;;;;;;31.80;21.90;;;;;;;;;;5106037;28;20036;-83
2021/04/18 08:21:36;;;;;;;33.45;22.50;;;;;;;;;;5095156;28;20138;-81
2021/04/18 08:24:03;;;;;;;32.50;21.80;;;;;;;;;;5102944;28;20004;-82
2021/04/18 08:26:31;;;;;;;33.97;21.58;;;;;;;;;;5102383;28;20032;-82
2021/04/18 08:29:01;;;;;;;32.90;21.98;;;;;;;;;;5095016;28;20016;-83
2021/04/18 08:31:30;;;;;;;33.40;22.90;;;;;;;;;;5089733;28;20021;-86
2021/04/18 08:33:57;;;;;;;32.45;22.05;;;;;;;;;;5093570;28;20058;-87
2021/04/18 08:36:22;;;;;;;33.08;22.70;;;;;;;;;;5099845;28;20075;-87
2021/04/18 08:38:49;;;;;;;32.75;22.63;;;;;;;;;;5083618;28;20386;-88
2021/04/18 08:41:15;;;;;;;34.30;22.65;;;;;;;;;;5088002;28;20016;-87
2021/04/18 08:43:41;;;;;;;32.13;21.92;;;;;;;;;;5075763;28;20077;-88
2021/04/18 08:46:06;;;;;;;31.85;21.92;;;;;;;;;;5086696;28;20020;-81
2021/04/18 08:48:32;;;;;;;31.80;22.17;;;;;;;;;;5089587;28;20031;-87
2021/04/18 08:51:01;;;;;;;30.13;21.00;;;;;;;;;;5086194;28;20024;-91
2021/04/18 08:53:27;;;;;;;32.33;20.55;;;;;;;;;;5086084;28;20043;-85
2021/04/18 08:56:02;;;;;;;37.67;23.33;;;;;;;;;;5092336;28;20437;-87
2021/04/18 08:58:31;;;;;;;30.70;20.50;;;;;;;;;;5092428;28;20831;-87
2021/04/18 09:01:12;;;;;;;32.45;21.60;;;;;;;;;;5084814;28;20035;-88
2021/04/18 09:03:39;;;;;;;31.40;21.25;;;;;;;;;;5074583;28;20058;-83
2021/04/18 09:06:22;;;;;;;34.30;22.52;;;;;;;;;;5089354;28;20032;-81
2021/04/18 09:08:51;;;;;;;30.90;20.52;;;;;;;;;;5075484;28;20021;-82
2021/04/18 09:11:16;;;;;;;32.65;20.00;;;;;;;;;;5071004;28;20055;-81
2021/04/18 09:13:54;;;;;;;32.00;21.55;;;;;;;;;;5089384;28;20195;-82
2021/04/18 09:16:23;;;;;;;31.38;20.30;;;;;;;;;;5065505;28;20046;-82
2021/04/18 09:18:49;;;;;;;33.33;22.23;;;;;;;;;;5084304;28;20016;-82
2021/04/18 09:21:15;;;;;;;34.78;22.88;;;;;;;;;;5067556;28;20025;-83
2021/04/18 09:23:55;;;;;;;34.83;23.13;;;;;;;;;;5079291;28;20024;-83
2021/04/18 09:26:20;;;;;;;31.45;22.25;;;;;;;;;;5073338;28;20390;-85
2021/04/18 09:29:07;;;;;;;36.17;23.02;;;;;;;;;;5081165;28;20411;-84
2021/04/18 09:31:32;;;;;;;34.13;20.85;;;;;;;;;;5084914;28;20032;-84
2021/04/18 09:34:04;;;;;;;33.28;22.23;;;;;;;;;;5067797;28;20048;-85
2021/04/18 09:36:30;;;;;;;34.15;22.05;;;;;;;;;;5077228;28;20044;-84
2021/04/18 09:38:56;;;;;;;32.60;21.73;;;;;;;;;;5095721;28;20024;-86
2021/04/18 09:41:21;;;;;;;33.92;22.27;;;;;;;;;;5084809;28;20027;-86
2021/04/18 09:43:54;;;;;;;32.45;21.55;;;;;;;;;;5090795;28;20031;-85
2021/04/18 09:46:19;;;;;;;31.63;21.17;;;;;;;;;;5072255;28;20024;-85
2021/04/18 09:48:55;;;;;;;31.83;22.13;;;;;;;;;;5085111;28;20035;-84
2021/04/18 09:51:20;;;;;;;30.05;19.83;;;;;;;;;;5061657;28;20074;-84
2021/04/18 09:53:58;;;;;;;31.83;21.25;;;;;;;;;;5082443;28;20067;-84
2021/04/18 09:56:24;;;;;;;31.05;22.13;;;;;;;;;;5054415;28;20032;-84
2021/04/18 09:58:49;;;;;;;35.30;22.08;;;;;;;;;;5064412;28;20031;-85
2021/04/18 10:01:22;;;;;;;35.10;24.38;;;;;;;;;;5061646;28;20421;-82
2021/04/18 10:03:48;;;;;;;32.42;21.83;;;;;;;;;;5093143;28;20085;-83
2021/04/18 10:06:13;;;;;;;32.70;21.92;;;;;;;;;;5088568;28;20475;-82
2021/04/18 10:08:39;;;;;;;31.45;22.27;;;;;;;;;;5083504;28;20067;-81
2021/04/18 10:11:10;;;;;;;32.00;22.15;;;;;;;;;;5086952;28;20051;-81
2021/04/18 10:13:35;;;;;;;33.42;23.85;;;;;;;;;;5085864;28;20115;-82
2021/04/18 10:16:01;;;;;;;34.85;23.00;;;;;;;;;;5085091;28;20066;-80
2021/04/18 10:18:27;;;;;;;36.25;24.33;;;;;;;;;;5061689;28;20119;-81
2021/04/18 10:21:12;;;;;;;34.15;23.45;;;;;;;;;;5084427;28;20116;-80
2021/04/18 10:23:37;;;;;;;35.42;23.38;;;;;;;;;;5070193;28;20029;-80
2021/04/18 10:26:02;;;;;;;33.90;23.60;;;;;;;;;;5079035;28;20031;-81
2021/04/18 10:28:27;;;;;;;35.50;24.40;;;;;;;;;;5083647;28;20046;-80
2021/04/18 10:30:52;;;;;;;37.10;24.40;;;;;;;;;;5084133;28;20017;-80
2021/04/18 10:33:17;;;;;;;37.22;24.35;;;;;;;;;;5084313;28;20065;-80
2021/04/18 10:35:43;;;;;;;35.85;24.05;;;;;;;;;;5087113;28;20030;-79
2021/04/18 10:38:08;;;;;;;30.17;21.33;;;;;;;;;;5083936;28;20103;-79
2021/04/18 10:40:33;;;;;;;31.67;21.90;;;;;;;;;;5088978;28;20016;-80
2021/04/18 10:42:58;;;;;;;31.35;21.05;;;;;;;;;;5081476;28;20076;-84
2021/04/18 10:45:23;;;;;;;30.90;22.35;;;;;;;;;;5100784;28;20016;-85
2021/04/18 10:47:49;;;;;;;29.63;21.27;;;;;;;;;;5096024;28;20013;-86
2021/04/18 10:50:14;;;;;;;29.80;21.90;;;;;;;;;;5105102;28;20115;-83
2021/04/18 10:52:40;;;;;;;32.38;21.67;;;;;;;;;;5096703;28;20031;-84
2021/04/18 10:55:06;;;;;;;28.73;20.60;;;;;;;;;;5092402;28;20020;-84
2021/04/18 10:57:31;;;;;;;28.58;20.40;;;;;;;;;;5081087;28;20043;-84
2021/04/18 10:59:56;;;;;;;29.10;19.73;;;;;;;;;;5086086;28;20020;-87
2021/04/18 11:02:21;;;;;;;25.88;18.17;;;;;;;;;;5082274;28;20031;-84
2021/04/18 11:04:46;;;;;;;27.48;18.02;;;;;;;;;;5079102;28;20103;-84
2021/04/18 11:07:12;;;;;;;24.23;16.48;;;;;;;;;;5085948;28;20035;-83
2021/04/18 11:09:37;;;;;;;22.27;15.98;;;;;;;;;;5085049;28;20025;-84
2021/04/18 11:12:02;;;;;;;21.35;16.50;;;;;;;;;;5064279;28;20119;-82
2021/04/18 11:14:28;;;;;;;22.83;16.38;;;;;;;;;;5087909;28;20071;-85
2021/04/18 11:16:53;;;;;;;22.95;16.38;;;;;;;;;;5078485;28;20047;-82
2021/04/18 11:19:18;;;;;;;20.85;15.27;;;;;;;;;;5056193;28;20422;-82
2021/04/18 11:21:44;;;;;;;23.23;15.75;;;;;;;;;;5078034;28;20110;-84
2021/04/18 11:24:09;;;;;;;26.83;18.95;;;;;;;;;;5081118;28;20019;-82
2021/04/18 11:26:35;;;;;;;26.20;19.13;;;;;;;;;;5060259;28;20028;-84
2021/04/18 11:29:02;;;;;;;24.63;18.25;;;;;;;;;;5080918;28;20127;-83
2021/04/18 11:31:27;;;;;;;25.27;18.60;;;;;;;;;;5084577;28;20028;-81
2021/04/18 11:33:52;;;;;;;25.83;19.05;;;;;;;;;;5086376;28;20052;-83
2021/04/18 11:36:18;;;;;;;26.67;18.75;;;;;;;;;;5084847;28;20518;-81
2021/04/18 11:38:44;;;;;;;27.55;19.58;;;;;;;;;;5058513;28;20028;-81
2021/04/18 11:41:09;;;;;;;29.17;19.30;;;;;;;;;;5055248;28;20028;-80
2021/04/18 11:43:34;;;;;;;28.83;19.90;;;;;;;;;;5060416;28;20165;-81
2021/04/18 11:46:00;;;;;;;28.23;19.95;;;;;;;;;;5084106;28;20096;-82
2021/04/18 11:48:25;;;;;;;27.55;19.38;;;;;;;;;;5083545;28;20486;-81
2021/04/18 11:50:50;;;;;;;26.63;18.48;;;;;;;;;;5069329;28;20466;-82
2021/04/18 11:53:16;;;;;;;27.73;18.38;;;;;;;;;;5084840;28;20169;-81
2021/04/18 11:55:41;;;;;;;24.77;18.63;;;;;;;;;;5086364;28;20028;-82
2021/04/18 11:58:06;;;;;;;27.10;19.15;;;;;;;;;;5077751;28;20485;-81
2021/04/18 12:00:32;;;;;;;27.52;18.58;;;;;;;;;;5076905;28;20031;-82
2021/04/18 12:02:57;;;;;;;27.02;19.35;;;;;;;;;;5076683;28;20116;-81
2021/04/18 12:05:22;;;;;;;25.52;18.55;;;;;;;;;;5076975;28;20020;-82
2021/04/18 12:07:47;;;;;;;25.98;19.23;;;;;;;;;;5079267;28;20016;-81
2021/04/18 12:10:13;;;;;;;27.75;19.77;;;;;;;;;;5084913;28;20194;-82
2021/04/18 12:12:40;;;;;;;26.25;18.45;;;;;;;;;;5085158;28;20032;-83
2021/04/18 12:15:06;;;;;;;23.48;17.58;;;;;;;;;;5074188;28;20039;-83
2021/04/18 12:17:32;;;;;;;23.92;17.85;;;;;;;;;;5104284;28;20011;-82
2021/04/18 12:19:57;;;;;;;28.00;19.02;;;;;;;;;;5109909;28;20001;-81
2021/04/18 12:22:22;;;;;;;27.08;18.70;;;;;;;;;;5105296;28;20092;-81
2021/04/18 12:24:47;;;;;;;25.92;19.05;;;;;;;;;;5095339;28;20049;-81
2021/04/18 12:27:12;;;;;;;24.23;18.33;;;;;;;;;;5088085;28;20100;-82
2021/04/18 12:29:38;;;;;;;24.63;17.88;;;;;;;;;;5093376;28;20024;-82
2021/04/18 12:32:03;;;;;;;24.92;18.35;;;;;;;;;;5087699;28;20411;-82
2021/04/18 12:34:28;;;;;;;25.80;18.38;;;;;;;;;;5089968;28;20066;-81
2021/04/18 12:36:53;;;;;;;24.20;17.63;;;;;;;;;;5089856;28;20008;-82
2021/04/18 12:39:19;;;;;;;23.88;17.75;;;;;;;;;;5084640;28;20635;-82
2021/04/18 12:41:44;;;;;;;22.25;16.60;;;;;;;;;;5068456;28;20409;-82
2021/04/18 12:44:09;;;;;;;25.23;17.98;;;;;;;;;;5094281;28;20051;-84
2021/04/18 12:46:34;;;;;;;22.52;16.55;;;;;;;;;;5078541;28;20436;-81
2021/04/18 12:49:00;;;;;;;23.17;16.58;;;;;;;;;;5086972;28;20389;-82
2021/04/18 12:51:27;;;;;;;22.75;17.02;;;;;;;;;;5066588;28;20036;-82
2021/04/18 12:53:52;;;;;;;25.25;17.73;;;;;;;;;;5072470;28;20063;-82
2021/04/18 12:56:18;;;;;;;23.08;16.63;;;;;;;;;;5072206;28;20148;-82
2021/04/18 12:58:43;;;;;;;24.20;16.73;;;;;;;;;;5094335;28;20043;-83
2021/04/18 13:01:08;;;;;;;22.85;16.02;;;;;;;;;;5093021;28;20474;-81
2021/04/18 13:03:33;;;;;;;21.13;16.00;;;;;;;;;;5074231;28;20074;-81
2021/04/18 13:05:59;;;;;;;23.42;15.95;;;;;;;;;;5091106;28;20020;-82
2021/04/18 13:08:24;;;;;;;24.40;17.25;;;;;;;;;;5072816;28;20028;-83
2021/04/18 13:10:49;;;;;;;23.70;16.50;;;;;;;;;;5081167;28;20039;-82
2021/04/18 13:13:15;;;;;;;21.40;15.63;;;;;;;;;;5090173;28;20524;-83
2021/04/18 13:15:41;;;;;;;22.83;16.70;;;;;;;;;;5080852;28;20024;-83
2021/04/18 13:18:06;;;;;;;24.50;16.63;;;;;;;;;;5087853;28;20024;-81
2021/04/18 13:20:32;;;;;;;20.70;14.93;;;;;;;;;;5086145;28;20512;-81
2021/04/18 13:22:57;;;;;;;22.02;14.95;;;;;;;;;;5067063;28;20035;-82
2021/04/18 13:25:23;;;;;;;20.30;15.00;;;;;;;;;;5082971;28;20027;-82
2021/04/18 13:27:48;;;;;;;23.02;15.05;;;;;;;;;;5077822;28;20024;-81
2021/04/18 13:30:13;;;;;;;21.55;14.75;;;;;;;;;;5070670;28;20426;-82
2021/04/18 13:32:39;;;;;;;20.75;14.85;;;;;;;;;;5067638;28;20083;-81
2021/04/18 13:35:04;;;;;;;19.27;14.88;;;;;;;;;;5085333;28;20035;-83
2021/04/18 13:37:30;;;;;;;19.60;14.38;;;;;;;;;;5084336;28;20096;-82
2021/04/18 13:39:55;;;;;;;22.13;15.13;;;;;;;;;;5083989;28;20031;-81
2021/04/18 13:42:20;;;;;;;20.52;14.82;;;;;;;;;;5066213;28;20016;-81
2021/04/18 13:44:45;;;;;;;21.67;15.32;;;;;;;;;;5071654;28;20073;-83
2021/04/18 13:47:10;;;;;;;22.77;15.25;;;;;;;;;;5079089;28;20111;-82
2021/04/18 13:49:36;;;;;;;23.27;16.50;;;;;;;;;;5091334;28;20042;-82
2021/04/18 13:52:01;;;;;;;20.98;15.05;;;;;;;;;;5078543;28;20123;-83
2021/04/18 13:54:26;;;;;;;22.95;16.42;;;;;;;;;;5083307;28;20795;-82
2021/04/18 13:56:51;;;;;;;23.40;16.38;;;;;;;;;;5077029;28;20020;-84
2021/04/18 13:59:16;;;;;;;23.98;16.55;;;;;;;;;;5087210;28;20467;-84
2021/04/18 14:01:42;;;;;;;24.25;16.85;;;;;;;;;;5090427;28;20024;-83
2021/04/18 14:04:07;;;;;;;22.45;16.02;;;;;;;;;;5088932;28;20039;-82
2021/04/18 14:06:32;;;;;;;24.02;16.67;;;;;;;;;;5085846;28;20058;-83
2021/04/18 14:08:57;;;;;;;23.95;16.60;;;;;;;;;;5073196;28;20127;-82